createdAt,value
2022-12-12T00:00:23.189Z,3.38
2022-12-12T00:02:50.467Z,3.45
2022-12-12T00:05:18.769Z,3.40
2022-12-12T00:07:45.997Z,3.00
2022-12-12T00:10:13.063Z,4.95
2022-12-12T00:12:40.694Z,3.70
2022-12-12T00:15:08.771Z,3.20
2022-12-12T00:17:35.800Z,2.80
2022-12-12T00:20:02.991Z,3.13
2022-12-12T00:22:29.986Z,2.67
2022-12-12T00:24:56.984Z,2.75
2022-12-12T00:27:24.295Z,3.58
2022-12-12T00:29:55.942Z,2.85
2022-12-12T00:32:22.952Z,2.58
2022-12-12T00:34:50.031Z,2.85
2022-12-12T00:37:17.137Z,2.40
2022-12-12T00:39:44.229Z,2.80
2022-12-12T00:42:11.286Z,2.80
2022-12-12T00:44:38.330Z,3.00
2022-12-12T00:47:05.413Z,2.72
2022-12-12T00:49:32.738Z,2.65
2022-12-12T00:51:59.783Z,2.58
2022-12-12T00:54:26.845Z,2.10
2022-12-12T00:56:53.931Z,2.80
2022-12-12T00:59:20.991Z,2.42
2022-12-12T01:01:48.091Z,2.50
2022-12-12T01:04:15.792Z,2.25
2022-12-12T01:06:42.780Z,2.28
2022-12-12T01:09:09.803Z,2.47
2022-12-12T01:11:36.743Z,1.80
2022-12-12T01:14:04.552Z,2.10
2022-12-12T01:16:31.854Z,1.83
2022-12-12T01:18:59.705Z,2.22
2022-12-12T01:21:26.718Z,2.50
2022-12-12T01:23:53.776Z,2.03
2022-12-12T01:26:23.775Z,2.30
2022-12-12T01:28:51.465Z,2.30
2022-12-12T01:31:18.565Z,2.35
2022-12-12T01:33:46.119Z,1.95
2022-12-12T01:36:16.588Z,2.10
2022-12-12T01:38:45.973Z,2.60
2022-12-12T01:41:14.053Z,2.30
2022-12-12T01:43:41.099Z,2.13
2022-12-12T01:46:40.590Z,2.00
2022-12-12T01:49:23.427Z,2.22
2022-12-12T01:51:53.881Z,1.90
2022-12-12T01:54:29.266Z,2.10
2022-12-12T01:56:58.497Z,2.08
2022-12-12T01:59:27.373Z,1.48
2022-12-12T02:01:55.315Z,1.67
2022-12-12T02:04:23.633Z,2.40
2022-12-12T02:06:52.158Z,1.70
2022-12-12T02:09:20.973Z,1.60
2022-12-12T02:11:52.218Z,1.50
2022-12-12T02:14:23.972Z,2.13
2022-12-12T02:16:56.855Z,1.95
2022-12-12T02:19:42.728Z,1.98
2022-12-12T02:22:24.847Z,1.98
2022-12-12T02:25:14.291Z,1.60
2022-12-12T02:28:11.507Z,2.00
2022-12-12T02:31:00.044Z,1.83
2022-12-12T02:33:45.895Z,1.63
2022-12-12T02:36:27.778Z,1.90
2022-12-12T02:39:28.000Z,1.77
2022-12-12T02:42:00.525Z,2.03
2022-12-12T02:44:42.260Z,1.80
2022-12-12T02:47:29.989Z,1.80
2022-12-12T02:50:14.074Z,1.50
2022-12-12T02:52:44.019Z,1.67
2022-12-12T02:55:11.507Z,1.52
2022-12-12T02:57:41.727Z,1.83
2022-12-12T03:00:15.859Z,1.92
2022-12-12T03:03:26.051Z,1.35
2022-12-12T03:06:53.281Z,1.42
2022-12-12T03:09:42.079Z,1.38
2022-12-12T03:12:38.661Z,1.80
2022-12-12T03:15:22.651Z,1.88
2022-12-12T03:18:09.542Z,1.80
2022-12-12T03:20:36.825Z,1.83
2022-12-12T03:23:18.457Z,1.90
2022-12-12T03:25:57.174Z,1.73
2022-12-12T03:28:30.896Z,1.58
2022-12-12T03:31:04.268Z,1.50
2022-12-12T03:33:52.116Z,1.75
2022-12-12T03:36:27.328Z,1.90
2022-12-12T03:39:06.180Z,1.83
2022-12-12T03:41:40.171Z,1.75
2022-12-12T03:44:22.790Z,1.77
2022-12-12T03:47:06.077Z,1.55
2022-12-12T03:49:44.332Z,1.90
2022-12-12T03:52:22.941Z,1.70
2022-12-12T03:55:19.960Z,1.80
2022-12-12T03:58:12.886Z,1.60
2022-12-12T04:00:42.811Z,1.92
2022-12-12T04:03:21.528Z,1.65
2022-12-12T04:06:26.904Z,1.60
2022-12-12T04:09:23.763Z,1.65
2022-12-12T04:12:33.902Z,1.80
2022-12-12T04:15:31.020Z,1.80
2022-12-12T04:18:09.640Z,1.75
2022-12-12T04:21:07.036Z,2.05
2022-12-12T04:23:49.073Z,1.73
2022-12-12T04:26:39.382Z,1.63
2022-12-12T04:29:24.218Z,1.58
2022-12-12T04:32:05.663Z,1.92
2022-12-12T04:34:36.506Z,2.00
2022-12-12T04:37:05.753Z,1.73
2022-12-12T04:39:34.914Z,1.85
2022-12-12T04:42:05.134Z,2.00
2022-12-12T04:44:34.791Z,1.50
2022-12-12T04:47:03.775Z,1.48
2022-12-12T04:49:33.166Z,1.70
2022-12-12T04:52:05.450Z,2.05
2022-12-12T04:54:39.352Z,1.80
2022-12-12T04:57:10.750Z,1.80
2022-12-12T04:59:38.417Z,1.92
2022-12-12T05:02:32.925Z,1.92
2022-12-12T05:05:27.052Z,2.03
2022-12-12T05:10:27.664Z,1.80
2022-12-12T05:12:59.841Z,1.65
2022-12-12T05:15:28.673Z,1.70
2022-12-12T05:18:08.972Z,2.13
2022-12-12T05:20:36.047Z,1.77
2022-12-12T05:23:03.130Z,2.25
2022-12-12T05:25:30.286Z,1.70
2022-12-12T05:27:57.395Z,1.83
2022-12-12T05:30:25.529Z,1.90
2022-12-12T05:32:52.689Z,2.20
2022-12-12T05:35:19.725Z,1.80
2022-12-12T05:37:51.711Z,1.90
2022-12-12T05:40:20.111Z,2.05
2022-12-12T05:42:48.225Z,1.92
2022-12-12T05:45:15.477Z,2.55
2022-12-12T05:47:43.106Z,2.65
2022-12-12T05:50:10.256Z,2.13
2022-12-12T05:52:37.332Z,1.80
2022-12-12T05:55:05.281Z,2.03
2022-12-12T05:57:32.247Z,2.60
2022-12-12T05:59:59.301Z,2.40
2022-12-12T06:02:26.291Z,1.77
2022-12-12T06:04:53.344Z,1.95
2022-12-12T06:07:20.311Z,3.15
2022-12-12T06:09:47.418Z,2.70
2022-12-12T06:12:14.430Z,2.40
2022-12-12T06:14:41.558Z,2.70
2022-12-12T06:17:08.533Z,2.80
2022-12-12T06:19:35.681Z,2.67
2022-12-12T06:22:02.642Z,2.22
2022-12-12T06:24:29.616Z,2.92
2022-12-12T06:26:56.567Z,2.83
2022-12-12T06:29:23.550Z,2.83
2022-12-12T06:31:50.579Z,2.63
2022-12-12T06:34:17.552Z,2.75
2022-12-12T06:36:44.871Z,2.97
2022-12-12T06:39:11.951Z,2.55
2022-12-12T06:41:39.909Z,2.95
2022-12-12T06:44:07.282Z,2.65
2022-12-12T06:46:34.382Z,2.38
2022-12-12T06:49:01.727Z,2.78
2022-12-12T06:51:36.387Z,3.28
2022-12-12T06:54:04.221Z,3.38
2022-12-12T06:56:31.232Z,3.08
2022-12-12T06:58:59.649Z,2.80
2022-12-12T07:01:26.719Z,2.75
2022-12-12T07:03:53.828Z,2.83
2022-12-12T07:06:22.383Z,2.85
2022-12-12T07:08:50.115Z,3.17
2022-12-12T07:11:23.436Z,3.33
2022-12-12T07:13:50.824Z,3.25
2022-12-12T07:16:19.093Z,3.05
2022-12-12T07:18:46.640Z,2.90
2022-12-12T07:21:16.628Z,2.53
2022-12-12T07:23:43.864Z,2.88
2022-12-12T07:26:16.471Z,5.00
2022-12-12T07:28:43.463Z,2.90
2022-12-12T07:31:13.152Z,3.10
2022-12-12T07:33:44.145Z,3.50
2022-12-12T07:36:12.873Z,4.07
2022-12-12T07:38:40.150Z,3.25
2022-12-12T07:41:13.138Z,3.40
2022-12-12T07:43:44.400Z,3.15
2022-12-12T07:46:15.555Z,3.40
2022-12-12T07:48:42.695Z,4.20
2022-12-12T07:51:09.668Z,4.28
2022-12-12T07:53:36.663Z,4.13
2022-12-12T07:56:08.613Z,2.92
2022-12-12T07:58:36.078Z,4.07
2022-12-12T08:01:14.703Z,3.63
2022-12-12T08:03:42.995Z,4.43
2022-12-12T08:06:10.229Z,3.90
2022-12-12T08:08:37.418Z,3.78
2022-12-12T08:11:09.614Z,3.88
2022-12-12T08:13:37.962Z,3.88
2022-12-12T08:16:06.392Z,4.22
2022-12-12T08:18:33.512Z,5.00
2022-12-12T08:21:00.553Z,4.40
2022-12-12T08:23:27.498Z,4.40
2022-12-12T08:25:55.035Z,4.72
2022-12-12T08:28:21.974Z,4.63
2022-12-12T08:30:50.528Z,4.15
2022-12-12T08:33:17.790Z,3.70
2022-12-12T08:35:44.758Z,4.50
2022-12-12T08:38:11.749Z,5.15
2022-12-12T08:40:39.369Z,4.47
2022-12-12T08:43:06.420Z,4.55
2022-12-12T08:45:33.306Z,4.72
2022-12-12T08:48:00.240Z,3.92
2022-12-12T08:50:27.131Z,4.00
2022-12-12T08:52:54.499Z,4.38
2022-12-12T08:55:21.456Z,4.82
2022-12-12T08:57:48.425Z,4.25
2022-12-12T09:00:16.050Z,4.10
2022-12-12T09:02:43.472Z,4.07
2022-12-12T09:05:10.974Z,4.05
2022-12-12T09:07:38.290Z,4.55
2022-12-12T09:10:06.382Z,5.50
2022-12-12T09:12:38.286Z,5.68
2022-12-12T09:15:09.112Z,5.70
2022-12-12T09:17:36.118Z,5.60
2022-12-12T09:20:03.669Z,5.38
2022-12-12T09:22:30.590Z,4.65
2022-12-12T09:24:57.551Z,6.00
2022-12-12T09:27:24.477Z,6.95
2022-12-12T09:29:51.528Z,7.65
2022-12-12T09:32:22.747Z,7.60
2022-12-12T09:34:51.604Z,7.40
2022-12-12T09:37:18.628Z,6.35
2022-12-12T09:39:45.667Z,5.80
2022-12-12T09:42:26.085Z,5.93
2022-12-12T09:44:58.799Z,5.97
2022-12-12T09:47:47.226Z,6.88
2022-12-12T09:50:35.169Z,6.90
2022-12-12T09:53:11.240Z,6.78
2022-12-12T09:55:44.943Z,6.50
2022-12-12T10:01:23.612Z,8.00
2022-12-12T10:04:04.626Z,11.25
2022-12-12T10:06:51.747Z,9.98
2022-12-12T10:09:47.132Z,7.50
2022-12-12T10:12:16.896Z,7.93
2022-12-12T10:14:48.579Z,7.55
2022-12-12T10:17:20.436Z,7.63
2022-12-12T10:19:54.137Z,9.48
2022-12-12T10:22:31.044Z,9.55
2022-12-12T10:25:21.204Z,9.27
2022-12-12T10:27:53.843Z,8.63
2022-12-12T10:30:21.417Z,11.02
2022-12-12T10:33:03.436Z,9.32
2022-12-12T10:35:38.749Z,9.25
2022-12-12T10:38:24.319Z,9.55
2022-12-12T10:41:07.436Z,9.90
2022-12-12T10:43:52.999Z,9.93
2022-12-12T10:46:31.245Z,8.60
2022-12-12T10:48:58.355Z,6.53
2022-12-12T10:51:27.898Z,5.70
2022-12-12T10:53:55.054Z,6.55
2022-12-12T10:56:25.575Z,6.03
2022-12-12T10:58:54.972Z,6.47
2022-12-12T11:02:00.262Z,6.28
2022-12-12T11:04:27.577Z,5.90
2022-12-12T11:06:56.328Z,5.88
2022-12-12T11:09:30.851Z,5.28
2022-12-12T11:12:15.416Z,5.70
2022-12-12T11:14:52.096Z,6.63
2022-12-12T11:17:25.303Z,5.43
2022-12-12T11:19:56.319Z,4.93
2022-12-12T11:22:23.816Z,5.93
2022-12-12T11:24:51.538Z,5.60
2022-12-12T11:27:29.443Z,5.25
2022-12-12T11:30:00.522Z,5.63
2022-12-12T11:32:38.707Z,5.65
2022-12-12T11:35:21.533Z,6.00
2022-12-12T11:37:51.805Z,6.43
2022-12-12T11:40:31.089Z,5.95
2022-12-12T11:43:24.156Z,6.38
2022-12-12T11:46:05.107Z,6.05
2022-12-12T11:48:40.641Z,6.50
2022-12-12T11:51:08.111Z,6.22
2022-12-12T11:53:41.117Z,8.18
2022-12-12T11:56:31.888Z,7.85
2022-12-12T11:59:23.863Z,8.80
2022-12-12T12:02:28.428Z,7.90
2022-12-12T12:07:43.712Z,8.05
2022-12-12T12:10:48.663Z,9.70
2022-12-12T12:13:25.357Z,10.07
2022-12-12T12:16:10.626Z,8.90
2022-12-12T12:19:08.847Z,9.63
2022-12-12T12:21:42.072Z,10.05
2022-12-12T12:24:21.850Z,11.35
2022-12-12T12:27:06.705Z,9.93
2022-12-12T12:30:01.313Z,10.05
2022-12-12T12:32:37.032Z,9.93
2022-12-12T12:35:26.180Z,9.85
2022-12-12T12:38:20.383Z,9.35
2022-12-12T12:40:57.184Z,9.20
2022-12-12T12:43:24.031Z,10.82
2022-12-12T12:46:01.076Z,9.85
2022-12-12T12:48:33.483Z,10.63
2022-12-12T12:53:47.439Z,9.68
2022-12-12T12:56:26.206Z,9.60
2022-12-12T12:59:01.375Z,10.00
2022-12-12T13:01:42.417Z,10.57
2022-12-12T13:04:18.503Z,10.35
2022-12-12T13:06:57.398Z,10.50
2022-12-12T13:09:57.575Z,10.15
2022-12-12T13:12:43.719Z,10.05
2022-12-12T13:15:27.306Z,10.63
2022-12-12T13:18:13.521Z,9.65
2022-12-12T13:20:47.679Z,10.15
2022-12-12T13:23:32.688Z,10.40
2022-12-12T13:26:23.807Z,9.40
2022-12-12T13:29:23.489Z,9.73
2022-12-12T13:32:05.589Z,8.98
2022-12-12T13:34:37.147Z,9.82
2022-12-12T13:37:06.357Z,9.45
2022-12-12T13:39:35.958Z,10.18
2022-12-12T13:42:08.338Z,9.25
2022-12-12T13:44:41.518Z,9.90
2022-12-12T13:47:31.529Z,10.52
2022-12-12T13:50:10.154Z,10.15
2022-12-12T13:52:42.478Z,11.88
2022-12-12T13:55:12.889Z,11.45
2022-12-12T13:58:02.612Z,11.43
2022-12-12T14:00:37.986Z,11.63
2022-12-12T14:03:11.180Z,12.05
2022-12-12T14:05:39.881Z,12.38
2022-12-12T14:08:15.791Z,12.90
2022-12-12T14:10:45.778Z,13.07
2022-12-12T14:13:21.572Z,12.80
2022-12-12T14:16:14.134Z,11.25
2022-12-12T14:19:03.305Z,11.88
2022-12-12T14:21:43.385Z,13.13
2022-12-12T14:24:35.241Z,12.07
2022-12-12T14:27:06.634Z,15.05
2022-12-12T14:29:42.253Z,18.50
2022-12-12T14:32:12.269Z,16.63
2022-12-12T14:34:54.295Z,18.92
2022-12-12T14:37:38.143Z,18.75
2022-12-12T14:40:27.548Z,19.95
2022-12-12T14:43:19.433Z,20.27
2022-12-12T14:45:51.334Z,20.75
2022-12-12T14:48:32.739Z,19.65
2022-12-12T14:51:29.714Z,18.02
2022-12-12T14:54:00.321Z,21.42
2022-12-12T14:56:27.238Z,28.70
2022-12-12T14:59:02.992Z,24.77
2022-12-12T15:01:39.637Z,26.05
2022-12-12T15:04:09.607Z,27.77
2022-12-12T15:06:43.828Z,31.08
2022-12-12T15:09:22.988Z,30.23
2022-12-12T15:11:50.900Z,30.75
2022-12-12T15:14:21.415Z,31.63
2022-12-12T15:16:51.468Z,38.47
2022-12-12T15:19:46.835Z,34.88
2022-12-12T15:22:27.069Z,37.38
2022-12-12T15:24:55.474Z,34.22
2022-12-12T15:27:22.317Z,35.95
2022-12-12T15:29:49.787Z,37.38
2022-12-12T15:32:22.734Z,30.17
2022-12-12T15:35:03.506Z,30.05
2022-12-12T15:37:37.439Z,27.85
2022-12-12T15:40:09.404Z,29.77
2022-12-12T15:42:46.320Z,27.58
2022-12-12T15:45:42.269Z,27.38
2022-12-12T15:48:15.649Z,26.95
2022-12-12T15:50:42.623Z,25.40
2022-12-12T15:53:30.001Z,25.05
2022-12-12T15:56:10.143Z,24.80
2022-12-12T15:58:41.299Z,25.42
2022-12-12T16:01:20.692Z,24.55
2022-12-12T16:04:11.464Z,26.90
2022-12-12T16:06:39.783Z,26.42
2022-12-12T16:09:18.521Z,27.02
2022-12-12T16:11:46.963Z,30.73
2022-12-12T16:14:24.636Z,25.90
2022-12-12T16:17:29.159Z,26.00
2022-12-12T16:19:58.267Z,30.55
2022-12-12T16:22:31.421Z,22.88
2022-12-12T16:25:12.584Z,22.10
2022-12-12T16:27:39.482Z,22.15
2022-12-12T16:30:06.829Z,21.77
2022-12-12T16:32:33.907Z,22.33
2022-12-12T16:35:00.841Z,23.98
2022-12-12T16:37:27.781Z,21.60
2022-12-12T16:39:55.776Z,22.58
2022-12-12T16:42:24.101Z,22.02
2022-12-12T16:44:51.369Z,20.83
2022-12-12T16:47:21.316Z,21.25
2022-12-12T16:49:48.970Z,20.17
2022-12-12T16:52:18.194Z,17.92
2022-12-12T16:54:52.820Z,17.80
2022-12-12T16:57:21.626Z,18.80
2022-12-12T16:59:48.790Z,17.35
2022-12-12T17:02:23.968Z,17.05
2022-12-12T17:04:52.111Z,18.92
2022-12-12T17:07:19.878Z,18.40
2022-12-12T17:09:46.808Z,19.80
2022-12-12T17:12:15.320Z,18.13
2022-12-12T17:14:42.421Z,17.30
2022-12-12T17:17:10.153Z,17.70
2022-12-12T17:19:37.540Z,18.05
2022-12-12T17:22:04.726Z,17.40
2022-12-12T17:24:32.565Z,18.15
2022-12-12T17:26:59.500Z,17.02
2022-12-12T17:29:26.503Z,17.88
2022-12-12T17:31:53.481Z,16.90
2022-12-12T17:34:20.587Z,18.45
2022-12-12T17:36:47.766Z,18.73
2022-12-12T17:39:14.832Z,18.55
2022-12-12T17:41:41.768Z,15.98
2022-12-12T17:44:08.798Z,17.83
2022-12-12T17:46:36.168Z,17.45
2022-12-12T17:49:03.428Z,18.40
2022-12-12T17:51:30.614Z,20.33
2022-12-12T17:54:00.020Z,17.17
2022-12-12T17:56:27.528Z,17.17
2022-12-12T17:58:54.836Z,17.95
2022-12-12T18:01:24.894Z,17.52
2022-12-12T18:03:53.038Z,18.75
2022-12-12T18:06:21.634Z,17.63
2022-12-12T18:08:49.433Z,17.58
2022-12-12T18:11:19.630Z,17.65
2022-12-12T18:13:50.652Z,15.70
2022-12-12T18:16:18.352Z,16.63
2022-12-12T18:18:45.579Z,16.40
2022-12-12T18:21:43.289Z,17.42
2022-12-12T18:24:06.708Z,14.68
2022-12-12T18:26:33.828Z,15.65
2022-12-12T18:29:03.519Z,16.30
2022-12-12T18:31:31.506Z,15.88
2022-12-12T18:33:59.242Z,16.13
2022-12-12T18:36:28.772Z,15.45
2022-12-12T18:38:56.823Z,16.73
2022-12-12T18:41:24.289Z,17.58
2022-12-12T18:43:51.198Z,17.42
2022-12-12T18:46:20.371Z,15.35
2022-12-12T18:48:48.654Z,16.70
2022-12-12T18:51:19.150Z,16.33
2022-12-12T18:53:46.634Z,14.02
2022-12-12T18:56:27.565Z,15.15
2022-12-12T18:58:59.421Z,13.52
2022-12-12T19:01:32.846Z,14.50
2022-12-12T19:04:05.831Z,14.40
2022-12-12T19:06:36.893Z,15.10
2022-12-12T19:09:11.082Z,13.43
2022-12-12T19:11:38.832Z,13.95
2022-12-12T19:14:07.454Z,12.25
2022-12-12T19:16:34.512Z,12.02
2022-12-12T19:19:04.903Z,12.30
2022-12-12T19:21:33.791Z,11.65
2022-12-12T19:24:02.058Z,10.82
2022-12-12T19:26:29.604Z,11.48
2022-12-12T19:28:59.236Z,11.55
2022-12-12T19:31:26.622Z,11.45
2022-12-12T19:33:53.861Z,11.65
2022-12-12T19:36:23.273Z,11.00
2022-12-12T19:38:50.734Z,10.73
2022-12-12T19:41:19.851Z,10.32
2022-12-12T19:43:48.922Z,10.93
2022-12-12T19:46:19.080Z,10.45
2022-12-12T19:48:46.583Z,10.52
2022-12-12T19:51:19.448Z,10.55
2022-12-12T19:53:49.509Z,10.13
2022-12-12T19:56:22.704Z,10.55
2022-12-12T19:58:50.360Z,10.32
2022-12-12T20:01:22.968Z,11.05
2022-12-12T20:04:21.667Z,10.27
2022-12-12T20:06:49.919Z,11.60
2022-12-12T20:09:22.316Z,10.98
2022-12-12T20:11:49.750Z,11.07
2022-12-12T20:14:19.930Z,10.43
2022-12-12T20:16:47.585Z,10.50
2022-12-12T20:19:15.110Z,10.23
2022-12-12T20:22:02.828Z,11.35
2022-12-12T20:24:31.972Z,11.38
2022-12-12T20:26:59.719Z,11.38
2022-12-12T20:29:27.398Z,14.60
2022-12-12T20:31:54.620Z,11.95
2022-12-12T20:34:24.354Z,12.80
2022-12-12T20:36:51.927Z,13.02
2022-12-12T20:39:22.118Z,15.05
2022-12-12T20:41:50.439Z,12.02
2022-12-12T20:44:17.525Z,13.98
2022-12-12T20:46:46.101Z,12.10
2022-12-12T20:49:16.766Z,11.18
2022-12-12T20:51:59.680Z,13.90
2022-12-12T20:54:28.691Z,12.67
2022-12-12T20:56:56.899Z,12.45
2022-12-12T20:59:24.776Z,10.23
2022-12-12T21:01:52.253Z,10.48
2022-12-12T21:04:19.654Z,9.77
2022-12-12T21:06:51.420Z,10.65
2022-12-12T21:09:24.245Z,12.65
2022-12-12T21:11:54.509Z,11.25
2022-12-12T21:14:22.016Z,10.25
2022-12-12T21:16:49.097Z,9.38
2022-12-12T21:19:18.862Z,9.65
2022-12-12T21:21:46.288Z,9.50
2022-12-12T21:24:15.683Z,8.70
2022-12-12T21:26:43.326Z,8.52
2022-12-12T21:29:10.686Z,9.27
2022-12-12T21:31:46.604Z,9.13
2022-12-12T21:34:19.028Z,9.57
2022-12-12T21:36:45.984Z,10.43
2022-12-12T21:39:13.436Z,9.35
2022-12-12T21:41:43.796Z,9.43
2022-12-12T21:44:10.943Z,8.60
2022-12-12T21:46:41.861Z,8.95
2022-12-12T21:49:26.943Z,8.68
2022-12-12T21:51:59.601Z,9.75
2022-12-12T21:54:29.201Z,9.05
2022-12-12T21:56:57.789Z,9.65
2022-12-12T21:59:25.335Z,10.07
2022-12-12T22:01:57.887Z,8.57
2022-12-12T22:04:25.524Z,8.85
2022-12-12T22:06:52.495Z,8.60
2022-12-12T22:09:19.543Z,10.88
2022-12-12T22:11:50.002Z,9.13
2022-12-12T22:14:21.095Z,8.45
2022-12-12T22:16:48.439Z,8.85
2022-12-12T22:19:16.729Z,9.63
2022-12-12T22:21:48.276Z,8.40
2022-12-12T22:24:17.129Z,8.85
2022-12-12T22:26:47.128Z,8.07
2022-12-12T22:29:17.128Z,7.35
2022-12-12T22:31:45.115Z,7.25
2022-12-12T22:34:23.558Z,7.85
2022-12-12T22:36:51.662Z,8.43
2022-12-12T22:39:29.405Z,10.00
2022-12-12T22:41:57.152Z,9.90
2022-12-12T22:44:25.376Z,8.93
2022-12-12T22:46:54.311Z,7.75
2022-12-12T22:49:25.867Z,8.20
2022-12-12T22:51:54.908Z,8.80
2022-12-12T22:54:21.976Z,8.15
2022-12-12T22:56:49.408Z,7.90
2022-12-12T22:59:16.419Z,7.90
2022-12-12T23:01:43.694Z,7.30
2022-12-12T23:04:13.548Z,8.32
2022-12-12T23:06:41.165Z,8.43
2022-12-12T23:09:17.172Z,8.35
2022-12-12T23:11:45.621Z,9.73
2022-12-12T23:14:16.457Z,8.13
2022-12-12T23:16:44.593Z,8.98
2022-12-12T23:19:14.656Z,7.53
2022-12-12T23:21:41.901Z,7.63
2022-12-12T23:24:09.418Z,7.57
2022-12-12T23:26:37.376Z,7.47
2022-12-12T23:29:08.089Z,8.00
2022-12-12T23:31:37.320Z,8.02
2022-12-12T23:34:07.449Z,8.23
2022-12-12T23:36:34.627Z,7.68
2022-12-12T23:39:06.346Z,6.78
2022-12-12T23:41:33.716Z,7.32
2022-12-12T23:44:00.684Z,7.53
2022-12-12T23:46:33.510Z,7.60
2022-12-12T23:49:06.591Z,6.55
2022-12-12T23:51:37.474Z,7.13
2022-12-12T23:54:07.595Z,8.27
2022-12-12T23:56:34.651Z,6.57
2022-12-12T23:59:01.980Z,6.93
